createdAt,value
2019-04-16T00:09:37.469Z,6.80
2019-04-16T00:39:41.613Z,6.40
2019-04-16T01:09:45.374Z,6.20
2019-04-16T01:40:02.876Z,6.00
2019-04-16T02:10:07.976Z,5.50
2019-04-16T02:40:17.306Z,5.20
2019-04-16T03:10:17.533Z,4.90
2019-04-16T03:40:24.682Z,4.50
2019-04-16T04:10:30.959Z,4.20
2019-04-16T04:40:43.808Z,4.30
2019-04-16T05:10:42.746Z,4.20
2019-04-16T05:40:43.351Z,4.40
2019-04-16T06:10:50.393Z,5.50
2019-04-16T06:41:03.083Z,9.00
2019-04-16T07:11:07.403Z,13.40
2019-04-16T07:41:17.119Z,21.90
2019-04-16T08:11:23.030Z,26.30
2019-04-16T08:41:26.837Z,23.80
2019-04-16T09:11:35.055Z,20.30
2019-04-16T09:41:39.688Z,23.90
2019-04-16T10:11:43.574Z,20.30
2019-04-16T10:41:48.989Z,17.80
2019-04-16T11:11:52.986Z,16.30
2019-04-16T11:41:56.791Z,15.90
2019-04-16T12:12:05.385Z,16.00
2019-04-16T12:42:10.774Z,15.20
2019-04-16T13:12:25.066Z,15.20
2019-04-16T13:42:29.011Z,15.00
2019-04-16T14:12:42.124Z,15.10
2019-04-16T14:42:40.199Z,14.90
2019-04-16T15:12:45.824Z,15.00
2019-04-16T15:43:06.690Z,14.80
2019-04-16T16:13:10.994Z,14.90
2019-04-16T16:43:15.149Z,14.60
2019-04-16T17:13:21.123Z,14.30
2019-04-16T17:43:30.878Z,13.90
2019-04-16T18:13:39.239Z,13.40
2019-04-16T18:43:47.537Z,12.50
2019-04-16T19:13:51.706Z,11.90
2019-04-16T19:43:55.882Z,11.20
2019-04-16T20:14:02.723Z,10.50
2019-04-16T20:44:09.099Z,10.00
2019-04-16T21:14:11.837Z,9.50
2019-04-16T21:44:15.939Z,9.00
2019-04-16T22:14:22.261Z,8.50
2019-04-16T22:44:43.323Z,8.10
2019-04-16T23:14:47.219Z,7.80
2019-04-16T23:45:11.085Z,7.50
